< < Back
Terminal Aerodrome Forecast


Current Version              Previous Versions:   1  2  3  4  5  6  7  8  9  

Terminal Aerodrome Forecast

264
FTUS44 KMRX 021725
TAFTYS
TAF
KTYS 021725Z 0218/0318 20010KT P6SM VCSH SCT015 BKN100
      TEMPO 0218/0220 4SM -SHRA BR SCT009 OVC020
     FM030100 22008KT P6SM VCTS SCT015CB BKN100
     FM030600 23008KT 6SM -SHRA BR VCTS SCT010 BKN020CB
     FM031600 23010KT P6SM VCTS SCT015CB BKN035=



Latest METAR

358
SAUS80 KWBC 031200 RRB
MTRTYS
METAR KTYS 031153Z 00000KT 10SM SCT037 BKN150 OVC250 21/19 A2990 RMK AO2
SLP114 60024 70105 T02110194 10222 20200 $


USA.gov is the U.S. government's official web portal to all federal, state and local government web resources and services.